createdAt,value
2019-02-28T00:00:37.204Z,38.30
2019-02-28T00:03:07.479Z,39.00
2019-02-28T00:05:40.203Z,40.50
2019-02-28T00:08:10.378Z,40.20
2019-02-28T00:10:40.552Z,41.40
2019-02-28T00:13:11.031Z,40.80
2019-02-28T00:15:41.186Z,40.90
2019-02-28T00:18:15.255Z,43.30
2019-02-28T00:20:43.143Z,41.30
2019-02-28T00:23:13.743Z,40.50
2019-02-28T00:25:46.144Z,38.20
2019-02-28T00:28:16.331Z,39.00
2019-02-28T00:30:47.752Z,39.00
2019-02-28T00:33:17.946Z,39.80
2019-02-28T00:35:48.089Z,40.60
2019-02-28T00:38:19.813Z,39.90
2019-02-28T00:40:49.963Z,39.90
2019-02-28T00:43:22.318Z,39.30
2019-02-28T00:45:51.935Z,38.90
2019-02-28T00:48:22.831Z,39.80
2019-02-28T00:50:52.982Z,39.90
2019-02-28T00:53:24.376Z,39.50
2019-02-28T00:55:55.929Z,40.10
2019-02-28T00:58:28.626Z,40.40
2019-02-28T01:00:57.992Z,40.20
2019-02-28T01:03:31.412Z,39.90
2019-02-28T01:06:02.362Z,39.90
2019-02-28T01:08:34.118Z,40.00
2019-02-28T01:11:04.382Z,39.50
2019-02-28T01:13:34.537Z,39.20
2019-02-28T01:16:05.013Z,39.30
2019-02-28T01:18:35.457Z,39.70
2019-02-28T01:21:05.586Z,40.20
2019-02-28T01:23:36.848Z,40.30
2019-02-28T01:26:07.015Z,41.20
2019-02-28T01:28:37.143Z,41.60
2019-02-28T01:31:11.681Z,41.30
2019-02-28T01:33:42.415Z,40.80
2019-02-28T01:36:15.559Z,40.50
2019-02-28T01:38:45.997Z,40.20
2019-02-28T01:41:16.168Z,41.00
2019-02-28T01:43:46.279Z,41.50
2019-02-28T01:46:17.924Z,41.80
2019-02-28T01:48:48.710Z,42.10
2019-02-28T01:51:21.121Z,42.70
2019-02-28T01:53:53.554Z,43.60
2019-02-28T01:56:23.124Z,44.20
2019-02-28T01:58:53.253Z,44.70
2019-02-28T02:01:23.427Z,45.50
2019-02-28T02:03:56.057Z,45.60
2019-02-28T02:06:28.005Z,45.30
2019-02-28T02:08:58.776Z,44.70
2019-02-28T02:11:28.919Z,45.50
2019-02-28T02:14:00.588Z,46.20
2019-02-28T02:16:30.750Z,46.20
2019-02-28T02:19:00.895Z,46.30
2019-02-28T02:21:35.655Z,47.40
2019-02-28T02:24:07.531Z,47.60
2019-02-28T02:26:38.157Z,47.30
2019-02-28T02:29:10.830Z,48.20
2019-02-28T02:31:43.570Z,49.40
2019-02-28T02:34:16.033Z,50.50
2019-02-28T02:36:53.139Z,51.70
2019-02-28T02:39:20.128Z,51.60
2019-02-28T02:41:50.280Z,52.40
2019-02-28T02:44:20.411Z,52.10
2019-02-28T02:46:55.574Z,52.00
2019-02-28T02:49:22.799Z,51.60
2019-02-28T02:51:53.699Z,51.70
2019-02-28T02:54:23.955Z,50.80
2019-02-28T02:56:54.084Z,50.00
2019-02-28T02:59:24.347Z,49.10
2019-02-28T03:01:56.175Z,49.50
2019-02-28T03:04:26.372Z,49.40
2019-02-28T03:06:56.514Z,49.90
2019-02-28T03:09:27.938Z,49.30
2019-02-28T03:12:00.438Z,49.70
2019-02-28T03:14:30.635Z,49.80
2019-02-28T03:17:00.787Z,50.90
2019-02-28T03:19:33.693Z,51.30
2019-02-28T03:22:03.994Z,51.60
2019-02-28T03:24:34.480Z,51.30
2019-02-28T03:27:04.980Z,51.30
2019-02-28T03:29:35.137Z,51.30
2019-02-28T03:32:05.316Z,50.90
2019-02-28T03:34:35.493Z,51.60
2019-02-28T03:37:05.723Z,51.90
2019-02-28T03:39:36.871Z,51.70
2019-02-28T03:42:09.060Z,51.20
2019-02-28T03:44:39.612Z,52.00
2019-02-28T03:47:09.819Z,51.90
2019-02-28T03:49:48.490Z,52.40
2019-02-28T03:52:12.518Z,52.10
2019-02-28T03:54:43.292Z,53.20
2019-02-28T03:57:17.347Z,52.30
2019-02-28T03:59:55.371Z,52.00
2019-02-28T04:02:25.192Z,52.20
2019-02-28T04:04:56.079Z,51.90
2019-02-28T04:07:27.515Z,52.00
2019-02-28T04:09:59.083Z,52.00
2019-02-28T04:12:29.325Z,51.80
2019-02-28T04:14:59.556Z,52.40
2019-02-28T04:17:31.781Z,51.60
2019-02-28T04:20:02.425Z,51.50
2019-02-28T04:22:32.547Z,50.40
2019-02-28T04:25:03.892Z,49.60
2019-02-28T04:27:34.424Z,48.80
2019-02-28T04:30:07.969Z,46.70
2019-02-28T04:32:37.336Z,44.70
2019-02-28T04:35:07.490Z,42.30
2019-02-28T04:37:41.262Z,40.60
2019-02-28T04:40:10.125Z,39.20
2019-02-28T04:42:41.911Z,38.30
2019-02-28T04:45:12.122Z,37.20
2019-02-28T04:47:42.260Z,36.30
2019-02-28T04:50:12.886Z,35.50
2019-02-28T04:52:48.043Z,34.90
2019-02-28T04:55:15.802Z,35.00
2019-02-28T04:57:47.327Z,33.60
2019-02-28T05:00:21.160Z,33.20
2019-02-28T05:02:54.814Z,33.40
2019-02-28T05:05:23.159Z,33.10
2019-02-28T05:07:54.566Z,32.90
2019-02-28T05:10:26.525Z,33.20
2019-02-28T05:13:01.701Z,34.20
2019-02-28T05:15:37.322Z,34.80
2019-02-28T05:18:06.501Z,35.20
2019-02-28T05:20:37.021Z,35.70
2019-02-28T05:23:07.974Z,36.50
2019-02-28T05:25:39.965Z,36.90
2019-02-28T05:28:12.408Z,37.90
2019-02-28T05:30:42.976Z,38.50
2019-02-28T05:33:17.372Z,39.40
2019-02-28T05:35:50.083Z,39.60
2019-02-28T05:38:22.713Z,40.50
2019-02-28T05:40:56.827Z,40.40
2019-02-28T05:43:29.263Z,39.30
2019-02-28T05:46:02.168Z,39.30
2019-02-28T05:48:35.333Z,39.30
2019-02-28T05:51:04.694Z,40.20
2019-02-28T05:53:36.569Z,41.10
2019-02-28T05:56:06.738Z,42.10
2019-02-28T05:58:36.949Z,42.60
2019-02-28T06:01:08.700Z,43.60
2019-02-28T06:03:39.056Z,43.60
2019-02-28T06:06:09.592Z,44.50
2019-02-28T06:08:40.149Z,44.40
2019-02-28T06:11:10.400Z,44.20
2019-02-28T06:13:40.596Z,44.40
2019-02-28T06:16:12.307Z,45.10
2019-02-28T06:18:43.679Z,43.40
2019-02-28T06:21:16.069Z,44.20
2019-02-28T06:23:46.651Z,45.40
2019-02-28T06:26:16.918Z,45.20
2019-02-28T06:28:47.112Z,45.80
2019-02-28T06:31:17.247Z,46.40
2019-02-28T06:33:47.708Z,47.50
2019-02-28T06:36:18.008Z,46.90
2019-02-28T06:38:48.171Z,46.50
2019-02-28T06:41:22.262Z,47.00
2019-02-28T06:43:53.075Z,47.40
2019-02-28T06:46:24.409Z,46.90
2019-02-28T06:49:01.595Z,46.50
2019-02-28T06:51:26.802Z,47.10
2019-02-28T06:53:57.099Z,46.80
2019-02-28T06:56:28.296Z,46.30
2019-02-28T06:59:00.527Z,47.00
2019-02-28T07:01:30.726Z,46.80
2019-02-28T07:04:01.964Z,47.00
2019-02-28T07:06:35.686Z,46.70
2019-02-28T07:09:05.474Z,47.20
2019-02-28T07:11:36.101Z,47.30
2019-02-28T07:14:12.830Z,46.40
2019-02-28T07:16:41.078Z,46.70
2019-02-28T07:19:11.464Z,46.30
2019-02-28T07:21:44.438Z,45.90
2019-02-28T07:24:16.309Z,45.30
2019-02-28T07:26:48.226Z,44.80
2019-02-28T07:29:18.407Z,44.50
2019-02-28T07:31:48.583Z,45.30
2019-02-28T07:34:23.789Z,45.00
2019-02-28T07:36:53.190Z,45.00
2019-02-28T07:39:23.784Z,45.30
2019-02-28T07:41:58.899Z,45.00
2019-02-28T07:44:28.851Z,44.90
2019-02-28T07:46:59.056Z,44.40
2019-02-28T07:49:29.227Z,43.20
2019-02-28T07:51:59.959Z,42.90
2019-02-28T07:54:31.366Z,42.90
2019-02-28T07:57:01.739Z,42.00
2019-02-28T07:59:31.910Z,39.50
2019-02-28T08:02:04.484Z,37.50
2019-02-28T08:04:35.751Z,34.70
2019-02-28T08:07:07.161Z,33.70
2019-02-28T08:09:40.609Z,30.00
2019-02-28T08:12:09.763Z,29.00
2019-02-28T08:14:43.678Z,27.40
2019-02-28T08:17:17.083Z,26.20
2019-02-28T08:19:47.263Z,25.90
2019-02-28T08:22:23.344Z,25.00
2019-02-28T08:24:49.313Z,24.00
2019-02-28T08:27:20.013Z,23.90
2019-02-28T08:29:50.209Z,23.80
2019-02-28T08:32:21.524Z,23.30
2019-02-28T08:34:55.583Z,22.80
2019-02-28T08:37:26.316Z,22.70
2019-02-28T08:39:56.491Z,22.20
2019-02-28T08:42:27.033Z,22.10
2019-02-28T08:45:13.308Z,22.20
2019-02-28T08:47:43.562Z,20.30
2019-02-28T08:52:49.066Z,19.50
2019-02-28T08:55:27.920Z,20.40
2019-02-28T08:57:55.877Z,20.50
2019-02-28T09:00:31.339Z,20.70
2019-02-28T09:03:00.644Z,20.00
2019-02-28T09:05:32.495Z,19.80
2019-02-28T09:08:03.560Z,18.90
2019-02-28T09:10:34.144Z,19.00
2019-02-28T09:13:07.951Z,19.20
2019-02-28T09:15:37.051Z,18.80
2019-02-28T09:18:09.061Z,18.70
2019-02-28T09:20:41.418Z,19.00
2019-02-28T09:23:11.675Z,19.00
2019-02-28T09:25:41.896Z,18.50
2019-02-28T09:28:13.185Z,18.70
2019-02-28T09:30:46.090Z,18.40
2019-02-28T09:33:19.302Z,18.70
2019-02-28T09:35:49.602Z,18.40
2019-02-28T09:38:20.647Z,17.80
2019-02-28T09:41:01.368Z,17.70
2019-02-28T09:43:31.765Z,17.90
2019-02-28T09:46:03.663Z,17.60
2019-02-28T09:48:39.309Z,17.60
2019-02-28T09:51:11.609Z,17.20
2019-02-28T09:53:42.351Z,17.40
2019-02-28T09:56:14.696Z,17.30
2019-02-28T09:58:45.022Z,16.90
2019-02-28T10:01:15.309Z,16.70
2019-02-28T10:03:45.650Z,16.70
2019-02-28T10:06:17.976Z,15.80
2019-02-28T10:08:48.213Z,15.80
2019-02-28T10:11:18.384Z,14.70
2019-02-28T10:13:49.600Z,15.40
2019-02-28T10:16:20.514Z,15.80
2019-02-28T10:18:51.094Z,14.80
2019-02-28T10:21:21.265Z,14.90
2019-02-28T10:23:57.066Z,14.90
2019-02-28T10:26:26.985Z,14.90
2019-02-28T10:29:01.190Z,14.90
2019-02-28T10:31:37.353Z,14.90
2019-02-28T10:34:05.351Z,14.80
2019-02-28T10:36:36.963Z,14.90
2019-02-28T10:39:08.915Z,14.70
2019-02-28T10:41:41.300Z,14.70
2019-02-28T10:44:12.059Z,14.70
2019-02-28T10:47:29.624Z,14.40
2019-02-28T10:50:00.278Z,14.30
2019-02-28T10:52:30.826Z,12.00
2019-02-28T10:55:06.263Z,11.20
2019-02-28T10:57:40.688Z,11.10
2019-02-28T11:00:20.106Z,11.20
2019-02-28T11:02:54.149Z,11.20
2019-02-28T11:05:27.492Z,11.70
2019-02-28T11:07:58.234Z,10.50
2019-02-28T11:10:35.537Z,10.10
2019-02-28T11:13:07.059Z,9.50
2019-02-28T11:15:37.945Z,9.30
2019-02-28T11:18:11.089Z,9.50
2019-02-28T11:20:42.794Z,8.90
2019-02-28T11:23:15.011Z,9.00
2019-02-28T11:25:45.859Z,8.40
2019-02-28T11:28:16.347Z,8.90
2019-02-28T11:30:46.731Z,7.60
2019-02-28T11:33:17.206Z,7.30
2019-02-28T11:35:48.800Z,8.10
2019-02-28T11:38:21.722Z,8.20
2019-02-28T11:40:57.226Z,6.50
2019-02-28T11:43:26.689Z,5.70
2019-02-28T11:46:00.838Z,5.20
2019-02-28T11:48:29.625Z,5.40
2019-02-28T11:50:59.814Z,5.40
2019-02-28T11:53:29.992Z,5.20
2019-02-28T11:56:00.614Z,5.10
2019-02-28T11:58:31.840Z,4.10
2019-02-28T12:01:02.366Z,4.20
2019-02-28T12:03:35.462Z,4.30
2019-02-28T12:06:04.618Z,4.60
2019-02-28T12:08:34.815Z,3.90
2019-02-28T12:11:05.073Z,3.40
2019-02-28T12:13:35.267Z,3.10
2019-02-28T12:16:05.703Z,2.80
2019-02-28T12:18:39.502Z,2.80
2019-02-28T12:21:09.794Z,3.30
2019-02-28T12:23:42.475Z,3.20
2019-02-28T12:26:21.770Z,3.40
2019-02-28T12:28:54.410Z,3.10
2019-02-28T12:31:32.045Z,3.20
2019-02-28T12:34:02.419Z,2.80
2019-02-28T12:36:34.953Z,2.80
2019-02-28T12:39:07.343Z,2.90
2019-02-28T12:41:37.588Z,3.20
2019-02-28T12:44:08.463Z,3.70
2019-02-28T12:46:38.803Z,3.60
2019-02-28T12:49:09.016Z,3.90
2019-02-28T12:51:39.666Z,3.50
2019-02-28T12:54:10.534Z,4.20
2019-02-28T12:56:40.708Z,4.10
2019-02-28T12:59:10.966Z,4.00
2019-02-28T13:01:41.437Z,4.60
2019-02-28T13:04:11.837Z,4.80
2019-02-28T13:06:42.054Z,5.40
2019-02-28T13:09:13.613Z,5.50
2019-02-28T13:11:48.030Z,6.20
2019-02-28T13:14:19.667Z,5.90
2019-02-28T13:20:51.379Z,5.30
2019-02-28T13:23:22.566Z,6.30
2019-02-28T13:25:59.206Z,6.60
2019-02-28T13:28:24.805Z,6.60
2019-02-28T13:30:55.563Z,7.10
2019-02-28T13:33:25.948Z,7.10
2019-02-28T13:35:56.270Z,7.60
2019-02-28T13:38:26.941Z,6.40
2019-02-28T13:40:57.719Z,6.50
2019-02-28T13:43:28.935Z,6.60
2019-02-28T13:46:02.803Z,6.30
2019-02-28T13:48:34.814Z,6.30
2019-02-28T13:51:08.892Z,6.20
2019-02-28T13:53:39.181Z,6.40
2019-02-28T13:56:10.121Z,6.20
2019-02-28T13:58:40.461Z,5.70
2019-02-28T14:01:10.704Z,5.40
2019-02-28T14:03:42.227Z,5.70
2019-02-28T14:06:18.922Z,6.50
2019-02-28T14:08:45.991Z,4.80
2019-02-28T14:11:17.772Z,3.90
2019-02-28T14:13:48.095Z,3.80
2019-02-28T14:16:19.441Z,3.70
2019-02-28T14:18:49.575Z,3.20
2019-02-28T14:21:19.753Z,3.40
2019-02-28T14:23:52.467Z,3.20
2019-02-28T14:26:21.877Z,4.00
2019-02-28T14:28:52.092Z,3.20
2019-02-28T14:31:23.501Z,2.80
2019-02-28T14:33:55.233Z,2.60
2019-02-28T14:36:25.827Z,4.00
2019-02-28T14:38:56.459Z,3.50
2019-02-28T14:41:27.957Z,3.50
2019-02-28T14:43:58.619Z,3.90
2019-02-28T14:46:28.871Z,4.20
2019-02-28T14:48:59.083Z,4.90
2019-02-28T14:51:29.438Z,3.80
2019-02-28T14:53:59.636Z,4.30
2019-02-28T14:56:29.763Z,4.00
2019-02-28T14:59:01.260Z,3.90
2019-02-28T15:01:31.425Z,4.50
2019-02-28T15:04:02.705Z,4.30
2019-02-28T15:06:33.085Z,5.20
2019-02-28T15:09:04.508Z,4.80
2019-02-28T15:11:34.828Z,4.20
2019-02-28T15:14:27.158Z,4.30
2019-02-28T15:17:02.016Z,4.60
2019-02-28T15:19:33.223Z,4.30
2019-02-28T15:22:05.331Z,4.80
2019-02-28T15:24:35.972Z,5.40
2019-02-28T15:27:07.561Z,5.20
2019-02-28T15:29:38.494Z,5.50
2019-02-28T15:32:08.666Z,5.90
2019-02-28T15:34:41.290Z,6.00
2019-02-28T15:37:11.299Z,5.70
2019-02-28T15:39:41.488Z,5.50
2019-02-28T15:42:11.691Z,5.60
2019-02-28T15:44:41.887Z,5.30
2019-02-28T15:47:13.165Z,5.60
2019-02-28T15:49:43.423Z,6.00
2019-02-28T15:52:13.683Z,6.20
2019-02-28T15:54:43.914Z,6.30
2019-02-28T15:57:16.593Z,6.20
2019-02-28T15:59:49.833Z,6.60
2019-02-28T16:02:21.582Z,6.50
2019-02-28T16:04:53.450Z,6.90
2019-02-28T16:07:24.988Z,7.40
2019-02-28T16:09:57.072Z,9.00
2019-02-28T16:12:27.246Z,10.30
2019-02-28T16:14:57.592Z,10.80
2019-02-28T16:17:29.281Z,11.50
2019-02-28T16:20:00.740Z,12.30
2019-02-28T16:22:30.952Z,12.70
2019-02-28T16:25:04.707Z,13.10
2019-02-28T16:27:36.567Z,13.70
2019-02-28T16:30:08.201Z,14.00
2019-02-28T16:32:38.527Z,14.00
2019-02-28T16:35:08.954Z,14.30
2019-02-28T16:37:39.240Z,14.60
2019-02-28T16:40:11.595Z,15.00
2019-02-28T16:42:43.373Z,15.00
2019-02-28T16:45:29.035Z,15.00
2019-02-28T16:48:03.056Z,14.90
2019-02-28T16:50:32.817Z,15.80
2019-02-28T16:53:03.160Z,15.30
2019-02-28T16:55:33.330Z,15.50
2019-02-28T16:58:03.542Z,15.80
2019-02-28T17:00:34.218Z,15.90
2019-02-28T17:03:07.291Z,16.10
2019-02-28T17:05:40.275Z,16.10
2019-02-28T17:08:12.164Z,16.30
2019-02-28T17:10:44.298Z,16.20
2019-02-28T17:13:39.525Z,16.50
2019-02-28T17:16:28.904Z,17.20
2019-02-28T17:18:59.210Z,17.90
2019-02-28T17:21:29.411Z,18.30
2019-02-28T17:24:00.061Z,18.60
2019-02-28T17:27:07.493Z,18.50
2019-02-28T17:29:57.640Z,18.50
2019-02-28T17:32:32.265Z,19.00
2019-02-28T17:35:02.033Z,19.00
2019-02-28T17:37:32.269Z,18.80
2019-02-28T17:40:02.507Z,18.80
2019-02-28T17:42:32.748Z,18.20
2019-02-28T17:45:18.311Z,18.50
2019-02-28T17:48:32.387Z,18.10
2019-02-28T17:51:30.051Z,18.00
2019-02-28T17:54:36.325Z,17.90
2019-02-28T17:57:53.566Z,17.90
2019-02-28T18:01:29.920Z,17.80
2019-02-28T18:04:40.344Z,18.20
2019-02-28T18:07:53.185Z,18.10
2019-02-28T18:11:03.870Z,18.40
2019-02-28T18:14:35.102Z,18.60
2019-02-28T18:18:05.450Z,18.90
2019-02-28T18:21:22.909Z,19.80
2019-02-28T18:25:00.711Z,20.40
2019-02-28T18:27:46.765Z,21.70
2019-02-28T18:30:56.864Z,23.10
2019-02-28T18:33:30.527Z,23.80
2019-02-28T18:36:01.102Z,24.60
2019-02-28T18:38:40.488Z,25.30
2019-02-28T18:41:11.727Z,26.10
2019-02-28T18:43:43.280Z,26.90
2019-02-28T18:46:14.859Z,27.50
2019-02-28T18:48:51.215Z,27.70
2019-02-28T18:51:21.157Z,28.30
2019-02-28T18:53:52.058Z,28.60
2019-02-28T18:56:22.670Z,29.10
2019-02-28T18:58:53.969Z,29.90
2019-02-28T19:01:26.170Z,30.60
2019-02-28T19:03:59.220Z,30.90
2019-02-28T19:06:31.373Z,31.30
2019-02-28T19:09:03.277Z,32.10
2019-02-28T19:11:36.087Z,32.70
2019-02-28T19:14:10.962Z,33.20
2019-02-28T19:16:48.945Z,33.50
2019-02-28T19:19:22.128Z,34.00
2019-02-28T19:21:52.374Z,34.00
2019-02-28T19:24:22.723Z,34.10
2019-02-28T19:26:55.525Z,34.00
2019-02-28T19:29:27.027Z,34.00
2019-02-28T19:31:57.317Z,34.20
2019-02-28T19:34:27.874Z,34.20
2019-02-28T19:37:01.094Z,34.00
2019-02-28T19:39:31.673Z,34.00
2019-02-28T19:42:04.953Z,33.50
2019-02-28T19:44:37.931Z,33.80
2019-02-28T19:47:50.003Z,32.80
2019-02-28T19:50:27.246Z,32.50
2019-02-28T19:53:21.893Z,33.20
2019-02-28T19:56:12.179Z,32.60
2019-02-28T19:59:06.197Z,32.40
2019-02-28T20:05:14.391Z,31.40
2019-02-28T20:08:06.073Z,31.70
2019-02-28T20:10:39.778Z,31.70
2019-02-28T20:13:21.421Z,31.70
2019-02-28T20:16:10.962Z,32.00
2019-02-28T20:18:50.626Z,30.30
2019-02-28T20:21:25.264Z,29.10
2019-02-28T20:23:56.065Z,29.00
2019-02-28T20:26:30.044Z,28.90
2019-02-28T20:29:04.504Z,28.10
2019-02-28T20:31:55.571Z,27.50
2019-02-28T20:34:30.464Z,27.40
2019-02-28T20:37:02.490Z,27.20
2019-02-28T20:39:35.847Z,27.00
2019-02-28T20:42:15.522Z,27.20
2019-02-28T20:44:51.566Z,27.10
2019-02-28T20:47:24.756Z,26.70
2019-02-28T20:50:05.903Z,26.80
2019-02-28T20:52:47.345Z,26.70
2019-02-28T20:55:17.545Z,27.00
2019-02-28T20:57:49.484Z,26.90
2019-02-28T21:00:32.122Z,26.70
2019-02-28T21:03:03.247Z,26.60
2019-02-28T21:05:37.254Z,26.30
2019-02-28T21:08:12.107Z,26.30
2019-02-28T21:10:43.860Z,26.20
2019-02-28T21:13:18.888Z,26.30
2019-02-28T21:15:54.153Z,26.10
2019-02-28T21:18:24.717Z,26.30
2019-02-28T21:20:57.512Z,26.20
2019-02-28T21:23:28.140Z,26.50
2019-02-28T21:26:02.283Z,26.50
2019-02-28T21:28:32.547Z,26.10
2019-02-28T21:31:06.304Z,26.30
2019-02-28T21:33:36.646Z,27.00
2019-02-28T21:36:14.057Z,27.60
2019-02-28T21:38:46.631Z,30.00
2019-02-28T21:41:23.203Z,29.50
2019-02-28T21:43:57.686Z,29.90
2019-02-28T21:46:35.325Z,29.00
2019-02-28T21:49:07.009Z,28.10
2019-02-28T21:51:39.950Z,29.20
2019-02-28T21:54:12.229Z,29.70
2019-02-28T21:56:45.620Z,28.90
2019-02-28T21:59:15.826Z,29.30
2019-02-28T22:01:47.448Z,28.90
2019-02-28T22:04:19.927Z,29.00
2019-02-28T22:06:50.123Z,29.20
2019-02-28T22:09:30.579Z,29.60
2019-02-28T22:12:01.954Z,29.20
2019-02-28T22:14:35.096Z,29.30
2019-02-28T22:17:08.422Z,29.00
2019-02-28T22:19:40.478Z,28.80
2019-02-28T22:22:15.015Z,29.20
2019-02-28T22:24:56.692Z,30.70
2019-02-28T22:27:34.240Z,38.40
2019-02-28T22:30:29.102Z,51.50
2019-02-28T22:33:08.648Z,56.70
2019-02-28T22:35:45.090Z,59.80
2019-02-28T22:38:15.411Z,59.20
2019-02-28T22:40:47.374Z,60.80
2019-02-28T22:43:19.050Z,61.40
2019-02-28T22:45:50.693Z,64.10
2019-02-28T22:48:26.283Z,62.10
2019-02-28T22:50:58.035Z,63.70
2019-02-28T22:53:29.655Z,64.00
2019-02-28T22:56:03.027Z,65.40
2019-02-28T22:58:33.735Z,66.10
2019-02-28T23:01:15.596Z,63.40
2019-02-28T23:03:47.439Z,65.30
2019-02-28T23:06:18.821Z,63.40
2019-02-28T23:08:53.951Z,62.30
2019-02-28T23:11:26.228Z,63.50
2019-02-28T23:13:59.362Z,61.30
2019-02-28T23:16:31.231Z,71.60
2019-02-28T23:19:03.270Z,73.30
2019-02-28T23:21:35.167Z,71.90
2019-02-28T23:24:10.003Z,69.90
2019-02-28T23:27:14.485Z,68.80
2019-02-28T23:30:23.609Z,69.00
2019-02-28T23:32:59.675Z,69.40
2019-02-28T23:35:40.772Z,69.90
2019-02-28T23:38:20.335Z,69.00
2019-02-28T23:40:58.436Z,68.40
2019-02-28T23:43:29.027Z,72.90
2019-02-28T23:45:59.615Z,74.80
2019-02-28T23:48:32.757Z,75.30
2019-02-28T23:51:03.810Z,70.50
2019-02-28T23:53:36.903Z,72.50
2019-02-28T23:56:10.551Z,70.80
2019-02-28T23:58:43.910Z,73.00
